Paris, Canada
Current Conditions -  °F | °C
As of 1:00 AM on Thursday 29 Jan 2015 (Local Time) from CYKF Reporting Station
Overcast Overcast  
Wind Chill:   Ceiling: 11000
Heat Index: 19°   Visibility: 9mi
Dew Point: 12°   Wind: 9mph
Humidity: 74%   Direction: 170°S
Pressure: 30.18"   Gusts: NA
Location:  43.2°N, 80.38°W
Report Text: CYKF 290600Z AUTO 17008KT 9SM OVC110 M07/M11 A3018 RMK SLP236
Loading
Personal Weather Stations






























Interactive Weather Map New forecast layout! Learn more

10-Day Weather Forecast

Advertisements
Track Severe Weather on mobile